sensor_id;sensor_type;location;lat;lon;timestamp;temperature;humidity
12015;DHT22;6066;48.138;16.402;2022-10-16T00:01:04;11.00;99.90
12015;DHT22;6066;48.138;16.402;2022-10-16T00:03:31;11.00;99.90
12015;DHT22;6066;48.138;16.402;2022-10-16T00:05:58;11.00;99.90
12015;DHT22;6066;48.138;16.402;2022-10-16T00:08:25;10.90;99.90
12015;DHT22;6066;48.138;16.402;2022-10-16T00:10:52;10.90;99.90
12015;DHT22;6066;48.138;16.402;2022-10-16T00:13:18;10.90;99.90
12015;DHT22;6066;48.138;16.402;2022-10-16T00:15:47;10.90;99.90
12015;DHT22;6066;48.138;16.402;2022-10-16T00:18:14;10.90;99.90
12015;DHT22;6066;48.138;16.402;2022-10-16T00:20:40;10.90;99.90
12015;DHT22;6066;48.138;16.402;2022-10-16T00:23:07;10.90;99.90
12015;DHT22;6066;48.138;16.402;2022-10-16T00:25:35;11.00;99.90
12015;DHT22;6066;48.138;16.402;2022-10-16T00:28:02;11.00;99.90
12015;DHT22;6066;48.138;16.402;2022-10-16T00:30:29;11.00;99.90
12015;DHT22;6066;48.138;16.402;2022-10-16T00:32:57;11.00;99.90
12015;DHT22;6066;48.138;16.402;2022-10-16T00:35:23;11.10;99.90
12015;DHT22;6066;48.138;16.402;2022-10-16T00:37:50;11.10;99.90
12015;DHT22;6066;48.138;16.402;2022-10-16T00:40:17;11.10;99.90
12015;DHT22;6066;48.138;16.402;2022-10-16T00:42:43;11.10;99.90
12015;DHT22;6066;48.138;16.402;2022-10-16T00:45:10;11.10;99.90
12015;DHT22;6066;48.138;16.402;2022-10-16T00:47:37;11.10;99.90
12015;DHT22;6066;48.138;16.402;2022-10-16T00:50:08;11.10;99.90
12015;DHT22;6066;48.138;16.402;2022-10-16T00:52:35;11.10;99.90
12015;DHT22;6066;48.138;16.402;2022-10-16T00:55:02;11.10;99.90
12015;DHT22;6066;48.138;16.402;2022-10-16T00:57:29;11.10;99.90
12015;DHT22;6066;48.138;16.402;2022-10-16T00:59:56;11.10;99.90
12015;DHT22;6066;48.138;16.402;2022-10-16T01:02:23;11.20;99.90
12015;DHT22;6066;48.138;16.402;2022-10-16T01:04:50;11.20;99.90
12015;DHT22;6066;48.138;16.402;2022-10-16T01:07:23;11.30;99.90
12015;DHT22;6066;48.138;16.402;2022-10-16T01:09:55;11.30;99.90
12015;DHT22;6066;48.138;16.402;2022-10-16T01:12:27;11.30;99.90
12015;DHT22;6066;48.138;16.402;2022-10-16T01:14:56;11.30;99.90
12015;DHT22;6066;48.138;16.402;2022-10-16T01:17:26;11.30;99.90
12015;DHT22;6066;48.138;16.402;2022-10-16T01:20:07;11.30;99.90
12015;DHT22;6066;48.138;16.402;2022-10-16T01:22:39;11.30;99.90
12015;DHT22;6066;48.138;16.402;2022-10-16T01:25:11;11.30;99.90
12015;DHT22;6066;48.138;16.402;2022-10-16T01:27:40;11.30;99.90
12015;DHT22;6066;48.138;16.402;2022-10-16T01:30:09;11.40;99.90
12015;DHT22;6066;48.138;16.402;2022-10-16T01:32:37;11.40;99.90
12015;DHT22;6066;48.138;16.402;2022-10-16T01:35:08;11.40;99.90
12015;DHT22;6066;48.138;16.402;2022-10-16T01:37:36;11.40;99.90
12015;DHT22;6066;48.138;16.402;2022-10-16T01:40:05;11.40;99.90
12015;DHT22;6066;48.138;16.402;2022-10-16T01:42:34;11.40;99.90
12015;DHT22;6066;48.138;16.402;2022-10-16T01:45:03;11.40;99.90
12015;DHT22;6066;48.138;16.402;2022-10-16T01:47:31;11.30;99.90
12015;DHT22;6066;48.138;16.402;2022-10-16T01:49:59;11.30;99.90
12015;DHT22;6066;48.138;16.402;2022-10-16T01:52:26;11.40;99.90
12015;DHT22;6066;48.138;16.402;2022-10-16T01:54:55;11.40;99.90
12015;DHT22;6066;48.138;16.402;2022-10-16T01:57:23;11.30;99.90
12015;DHT22;6066;48.138;16.402;2022-10-16T01:59:52;11.30;99.90
12015;DHT22;6066;48.138;16.402;2022-10-16T02:02:22;11.30;99.90
12015;DHT22;6066;48.138;16.402;2022-10-16T02:04:49;11.30;99.90
12015;DHT22;6066;48.138;16.402;2022-10-16T02:07:19;11.20;99.90
12015;DHT22;6066;48.138;16.402;2022-10-16T02:09:46;11.20;99.90
12015;DHT22;6066;48.138;16.402;2022-10-16T02:12:13;11.20;99.90
12015;DHT22;6066;48.138;16.402;2022-10-16T02:14:41;11.20;99.90
12015;DHT22;6066;48.138;16.402;2022-10-16T02:17:11;11.10;99.90
12015;DHT22;6066;48.138;16.402;2022-10-16T02:19:40;11.10;99.90
12015;DHT22;6066;48.138;16.402;2022-10-16T02:22:08;11.10;99.90
12015;DHT22;6066;48.138;16.402;2022-10-16T02:24:37;11.10;99.90
12015;DHT22;6066;48.138;16.402;2022-10-16T02:27:05;11.10;99.90
12015;DHT22;6066;48.138;16.402;2022-10-16T02:29:33;11.10;99.90
12015;DHT22;6066;48.138;16.402;2022-10-16T02:32:04;11.10;99.90
12015;DHT22;6066;48.138;16.402;2022-10-16T02:34:32;11.00;99.90
12015;DHT22;6066;48.138;16.402;2022-10-16T02:37:01;11.10;99.90
12015;DHT22;6066;48.138;16.402;2022-10-16T02:39:29;11.10;99.90
12015;DHT22;6066;48.138;16.402;2022-10-16T02:41:58;11.10;99.90
12015;DHT22;6066;48.138;16.402;2022-10-16T02:44:25;11.10;99.90
12015;DHT22;6066;48.138;16.402;2022-10-16T02:46:52;11.10;99.90
12015;DHT22;6066;48.138;16.402;2022-10-16T02:49:19;11.00;99.90
12015;DHT22;6066;48.138;16.402;2022-10-16T02:51:45;11.00;99.90
12015;DHT22;6066;48.138;16.402;2022-10-16T02:54:13;11.00;99.90
12015;DHT22;6066;48.138;16.402;2022-10-16T02:56:40;11.00;99.90
12015;DHT22;6066;48.138;16.402;2022-10-16T02:59:07;10.90;99.90
12015;DHT22;6066;48.138;16.402;2022-10-16T03:01:33;10.90;99.90
12015;DHT22;6066;48.138;16.402;2022-10-16T03:04:00;10.80;99.90
12015;DHT22;6066;48.138;16.402;2022-10-16T03:06:27;10.80;99.90
12015;DHT22;6066;48.138;16.402;2022-10-16T03:08:53;10.80;99.90
12015;DHT22;6066;48.138;16.402;2022-10-16T03:11:21;10.80;99.90
12015;DHT22;6066;48.138;16.402;2022-10-16T03:13:48;10.70;99.90
12015;DHT22;6066;48.138;16.402;2022-10-16T03:16:15;10.70;99.90
12015;DHT22;6066;48.138;16.402;2022-10-16T03:18:41;10.70;99.90
12015;DHT22;6066;48.138;16.402;2022-10-16T03:21:08;10.80;99.90
12015;DHT22;6066;48.138;16.402;2022-10-16T03:23:35;10.80;99.90
12015;DHT22;6066;48.138;16.402;2022-10-16T03:26:01;10.80;99.90
12015;DHT22;6066;48.138;16.402;2022-10-16T03:28:31;10.80;99.90
12015;DHT22;6066;48.138;16.402;2022-10-16T03:30:59;10.80;99.90
12015;DHT22;6066;48.138;16.402;2022-10-16T03:33:26;10.80;99.90
12015;DHT22;6066;48.138;16.402;2022-10-16T03:35:53;10.80;99.90
12015;DHT22;6066;48.138;16.402;2022-10-16T03:38:20;10.70;99.90
12015;DHT22;6066;48.138;16.402;2022-10-16T03:40:47;10.70;99.90
12015;DHT22;6066;48.138;16.402;2022-10-16T03:43:14;10.70;99.90
12015;DHT22;6066;48.138;16.402;2022-10-16T03:45:42;10.70;99.90
12015;DHT22;6066;48.138;16.402;2022-10-16T03:48:08;10.70;99.90
12015;DHT22;6066;48.138;16.402;2022-10-16T03:50:35;10.70;99.90
12015;DHT22;6066;48.138;16.402;2022-10-16T03:53:02;10.70;99.90
12015;DHT22;6066;48.138;16.402;2022-10-16T03:55:29;10.70;99.90
12015;DHT22;6066;48.138;16.402;2022-10-16T03:57:55;10.60;99.90
12015;DHT22;6066;48.138;16.402;2022-10-16T04:00:22;10.60;99.90
12015;DHT22;6066;48.138;16.402;2022-10-16T04:02:50;10.50;99.90
12015;DHT22;6066;48.138;16.402;2022-10-16T04:05:17;10.50;99.90
12015;DHT22;6066;48.138;16.402;2022-10-16T04:07:43;10.50;99.90
12015;DHT22;6066;48.138;16.402;2022-10-16T04:10:10;10.40;99.90
12015;DHT22;6066;48.138;16.402;2022-10-16T04:12:37;10.40;99.90
12015;DHT22;6066;48.138;16.402;2022-10-16T04:15:03;10.40;99.90
12015;DHT22;6066;48.138;16.402;2022-10-16T04:17:30;10.40;99.90
12015;DHT22;6066;48.138;16.402;2022-10-16T04:19:58;10.30;99.90
12015;DHT22;6066;48.138;16.402;2022-10-16T04:22:25;10.20;99.90
12015;DHT22;6066;48.138;16.402;2022-10-16T04:24:51;10.10;99.90
12015;DHT22;6066;48.138;16.402;2022-10-16T04:27:18;10.10;99.90
12015;DHT22;6066;48.138;16.402;2022-10-16T04:29:45;10.10;99.90
12015;DHT22;6066;48.138;16.402;2022-10-16T04:32:11;10.10;99.90
12015;DHT22;6066;48.138;16.402;2022-10-16T04:34:38;10.10;99.90
12015;DHT22;6066;48.138;16.402;2022-10-16T04:37:07;10.10;99.90
12015;DHT22;6066;48.138;16.402;2022-10-16T04:39:33;10.00;99.90
12015;DHT22;6066;48.138;16.402;2022-10-16T04:42:00;10.00;99.90
12015;DHT22;6066;48.138;16.402;2022-10-16T04:44:27;10.10;99.90
12015;DHT22;6066;48.138;16.402;2022-10-16T04:46:54;10.10;99.90
12015;DHT22;6066;48.138;16.402;2022-10-16T04:49:21;10.10;99.90
12015;DHT22;6066;48.138;16.402;2022-10-16T04:51:47;10.10;99.90
12015;DHT22;6066;48.138;16.402;2022-10-16T04:54:15;10.10;99.90
12015;DHT22;6066;48.138;16.402;2022-10-16T04:56:42;10.10;99.90
12015;DHT22;6066;48.138;16.402;2022-10-16T04:59:12;10.00;99.90
12015;DHT22;6066;48.138;16.402;2022-10-16T05:01:39;10.00;99.90
12015;DHT22;6066;48.138;16.402;2022-10-16T05:04:06;10.00;99.90
12015;DHT22;6066;48.138;16.402;2022-10-16T05:06:32;10.00;99.90
12015;DHT22;6066;48.138;16.402;2022-10-16T05:08:59;10.00;99.90
12015;DHT22;6066;48.138;16.402;2022-10-16T05:11:27;10.10;99.90
12015;DHT22;6066;48.138;16.402;2022-10-16T05:13:54;10.10;99.90
12015;DHT22;6066;48.138;16.402;2022-10-16T05:16:20;10.10;99.90
12015;DHT22;6066;48.138;16.402;2022-10-16T05:18:47;10.10;99.90
12015;DHT22;6066;48.138;16.402;2022-10-16T05:21:14;10.20;99.90
12015;DHT22;6066;48.138;16.402;2022-10-16T05:23:40;10.20;99.90
12015;DHT22;6066;48.138;16.402;2022-10-16T05:26:07;10.20;99.90
12015;DHT22;6066;48.138;16.402;2022-10-16T05:28:35;10.20;99.90
12015;DHT22;6066;48.138;16.402;2022-10-16T05:31:03;10.20;99.90
12015;DHT22;6066;48.138;16.402;2022-10-16T05:33:30;10.20;99.90
12015;DHT22;6066;48.138;16.402;2022-10-16T05:35:57;10.30;99.90
12015;DHT22;6066;48.138;16.402;2022-10-16T05:38:26;10.30;99.90
12015;DHT22;6066;48.138;16.402;2022-10-16T05:40:53;10.40;99.90
12015;DHT22;6066;48.138;16.402;2022-10-16T05:43:20;10.40;99.90
12015;DHT22;6066;48.138;16.402;2022-10-16T05:45:54;10.40;99.90
12015;DHT22;6066;48.138;16.402;2022-10-16T05:48:21;10.40;99.90
12015;DHT22;6066;48.138;16.402;2022-10-16T05:50:48;10.50;99.90
12015;DHT22;6066;48.138;16.402;2022-10-16T05:53:15;10.60;99.90
12015;DHT22;6066;48.138;16.402;2022-10-16T05:55:41;10.60;99.90
12015;DHT22;6066;48.138;16.402;2022-10-16T05:58:08;10.60;99.90
12015;DHT22;6066;48.138;16.402;2022-10-16T06:00:35;10.60;99.90
12015;DHT22;6066;48.138;16.402;2022-10-16T06:03:03;10.70;99.90
12015;DHT22;6066;48.138;16.402;2022-10-16T06:05:32;10.70;99.90
12015;DHT22;6066;48.138;16.402;2022-10-16T06:07:58;10.80;99.90
12015;DHT22;6066;48.138;16.402;2022-10-16T06:10:25;10.80;99.90
12015;DHT22;6066;48.138;16.402;2022-10-16T06:12:52;10.90;99.90
12015;DHT22;6066;48.138;16.402;2022-10-16T06:15:18;11.00;99.90
12015;DHT22;6066;48.138;16.402;2022-10-16T06:17:45;11.10;99.90
12015;DHT22;6066;48.138;16.402;2022-10-16T06:20:13;11.10;99.90
12015;DHT22;6066;48.138;16.402;2022-10-16T06:22:40;11.20;99.90
12015;DHT22;6066;48.138;16.402;2022-10-16T06:25:07;11.20;99.90
12015;DHT22;6066;48.138;16.402;2022-10-16T06:27:33;11.30;99.90
12015;DHT22;6066;48.138;16.402;2022-10-16T06:30:00;11.30;99.90
12015;DHT22;6066;48.138;16.402;2022-10-16T06:32:29;11.30;99.90
12015;DHT22;6066;48.138;16.402;2022-10-16T06:34:55;11.30;99.90
12015;DHT22;6066;48.138;16.402;2022-10-16T06:37:23;11.30;99.90
12015;DHT22;6066;48.138;16.402;2022-10-16T06:39:50;11.30;99.90
12015;DHT22;6066;48.138;16.402;2022-10-16T06:42:17;11.30;99.90
12015;DHT22;6066;48.138;16.402;2022-10-16T06:44:44;11.40;99.90
12015;DHT22;6066;48.138;16.402;2022-10-16T06:47:11;11.40;99.90
12015;DHT22;6066;48.138;16.402;2022-10-16T06:49:37;11.50;99.90
12015;DHT22;6066;48.138;16.402;2022-10-16T06:52:04;11.50;99.90
12015;DHT22;6066;48.138;16.402;2022-10-16T06:54:32;11.50;99.90
12015;DHT22;6066;48.138;16.402;2022-10-16T06:56:59;11.50;99.90
12015;DHT22;6066;48.138;16.402;2022-10-16T06:59:27;11.60;99.90
12015;DHT22;6066;48.138;16.402;2022-10-16T07:01:54;11.50;99.90
12015;DHT22;6066;48.138;16.402;2022-10-16T07:04:20;11.50;99.90
12015;DHT22;6066;48.138;16.402;2022-10-16T07:06:47;11.50;99.90
12015;DHT22;6066;48.138;16.402;2022-10-16T07:09:14;11.50;99.90
12015;DHT22;6066;48.138;16.402;2022-10-16T07:11:42;11.50;99.90
12015;DHT22;6066;48.138;16.402;2022-10-16T07:14:12;11.50;99.90
12015;DHT22;6066;48.138;16.402;2022-10-16T07:16:41;11.50;99.90
12015;DHT22;6066;48.138;16.402;2022-10-16T07:19:08;11.50;99.90
12015;DHT22;6066;48.138;16.402;2022-10-16T07:21:37;11.60;99.90
12015;DHT22;6066;48.138;16.402;2022-10-16T07:24:05;11.70;99.90
12015;DHT22;6066;48.138;16.402;2022-10-16T07:26:34;11.70;99.90
12015;DHT22;6066;48.138;16.402;2022-10-16T07:29:02;11.80;99.90
12015;DHT22;6066;48.138;16.402;2022-10-16T07:31:29;11.90;99.90
12015;DHT22;6066;48.138;16.402;2022-10-16T07:33:57;11.90;99.90
12015;DHT22;6066;48.138;16.402;2022-10-16T07:36:24;11.90;99.90
12015;DHT22;6066;48.138;16.402;2022-10-16T07:38:51;11.90;99.90
12015;DHT22;6066;48.138;16.402;2022-10-16T07:41:18;12.00;99.90
12015;DHT22;6066;48.138;16.402;2022-10-16T07:43:45;12.00;99.90
12015;DHT22;6066;48.138;16.402;2022-10-16T07:46:14;12.10;99.90
12015;DHT22;6066;48.138;16.402;2022-10-16T07:48:41;12.10;99.90
12015;DHT22;6066;48.138;16.402;2022-10-16T07:51:11;12.20;99.90
12015;DHT22;6066;48.138;16.402;2022-10-16T07:53:38;12.20;99.90
12015;DHT22;6066;48.138;16.402;2022-10-16T07:56:05;12.20;99.90
12015;DHT22;6066;48.138;16.402;2022-10-16T07:58:33;12.20;99.90
12015;DHT22;6066;48.138;16.402;2022-10-16T08:01:02;12.30;99.90
12015;DHT22;6066;48.138;16.402;2022-10-16T08:03:31;12.30;99.90
12015;DHT22;6066;48.138;16.402;2022-10-16T08:05:58;12.20;99.90
12015;DHT22;6066;48.138;16.402;2022-10-16T08:08:24;12.20;99.90
12015;DHT22;6066;48.138;16.402;2022-10-16T08:10:51;12.20;99.90
12015;DHT22;6066;48.138;16.402;2022-10-16T08:13:18;12.20;99.90
12015;DHT22;6066;48.138;16.402;2022-10-16T08:15:45;12.20;99.90
12015;DHT22;6066;48.138;16.402;2022-10-16T08:18:12;12.20;99.90
12015;DHT22;6066;48.138;16.402;2022-10-16T08:20:41;12.20;99.90
12015;DHT22;6066;48.138;16.402;2022-10-16T08:23:08;12.20;99.90
12015;DHT22;6066;48.138;16.402;2022-10-16T08:25:36;12.20;99.90
12015;DHT22;6066;48.138;16.402;2022-10-16T08:28:03;12.30;99.90
12015;DHT22;6066;48.138;16.402;2022-10-16T08:30:31;12.30;99.90
12015;DHT22;6066;48.138;16.402;2022-10-16T08:32:57;12.40;99.90
12015;DHT22;6066;48.138;16.402;2022-10-16T08:35:24;12.50;99.90
12015;DHT22;6066;48.138;16.402;2022-10-16T08:37:52;12.50;99.90
12015;DHT22;6066;48.138;16.402;2022-10-16T08:40:20;12.50;99.90
12015;DHT22;6066;48.138;16.402;2022-10-16T08:45:42;12.50;99.90
12015;DHT22;6066;48.138;16.402;2022-10-16T08:48:14;12.50;99.90
12015;DHT22;6066;48.138;16.402;2022-10-16T08:50:43;12.50;99.90
12015;DHT22;6066;48.138;16.402;2022-10-16T08:53:13;12.60;99.90
12015;DHT22;6066;48.138;16.402;2022-10-16T08:55:41;12.50;99.90
12015;DHT22;6066;48.138;16.402;2022-10-16T08:58:10;12.60;99.90
12015;DHT22;6066;48.138;16.402;2022-10-16T09:00:39;12.60;99.90
12015;DHT22;6066;48.138;16.402;2022-10-16T09:03:10;12.60;99.90
12015;DHT22;6066;48.138;16.402;2022-10-16T09:05:52;12.60;99.90
12015;DHT22;6066;48.138;16.402;2022-10-16T09:08:24;12.60;99.90
12015;DHT22;6066;48.138;16.402;2022-10-16T09:10:56;12.60;99.90
12015;DHT22;6066;48.138;16.402;2022-10-16T09:13:26;12.60;99.90
12015;DHT22;6066;48.138;16.402;2022-10-16T09:15:55;12.60;99.90
12015;DHT22;6066;48.138;16.402;2022-10-16T09:18:26;12.60;99.90
12015;DHT22;6066;48.138;16.402;2022-10-16T09:20:57;12.60;99.90
12015;DHT22;6066;48.138;16.402;2022-10-16T09:23:27;12.70;99.90
12015;DHT22;6066;48.138;16.402;2022-10-16T09:25:55;12.70;99.90
12015;DHT22;6066;48.138;16.402;2022-10-16T09:28:22;12.70;99.90
12015;DHT22;6066;48.138;16.402;2022-10-16T09:30:48;12.70;99.90
12015;DHT22;6066;48.138;16.402;2022-10-16T09:33:16;12.70;99.90
12015;DHT22;6066;48.138;16.402;2022-10-16T09:35:44;12.70;99.90
12015;DHT22;6066;48.138;16.402;2022-10-16T09:38:20;12.70;99.90
12015;DHT22;6066;48.138;16.402;2022-10-16T09:40:49;12.80;99.90
12015;DHT22;6066;48.138;16.402;2022-10-16T09:43:19;12.80;99.90
12015;DHT22;6066;48.138;16.402;2022-10-16T09:48:30;12.80;99.90
12015;DHT22;6066;48.138;16.402;2022-10-16T09:50:58;12.90;99.90
12015;DHT22;6066;48.138;16.402;2022-10-16T09:53:26;13.00;99.90
12015;DHT22;6066;48.138;16.402;2022-10-16T09:56:05;13.00;99.90
12015;DHT22;6066;48.138;16.402;2022-10-16T09:58:32;13.10;99.90
12015;DHT22;6066;48.138;16.402;2022-10-16T10:00:59;13.10;99.90
12015;DHT22;6066;48.138;16.402;2022-10-16T10:03:36;13.10;99.90
12015;DHT22;6066;48.138;16.402;2022-10-16T10:06:05;13.20;99.90
12015;DHT22;6066;48.138;16.402;2022-10-16T10:08:33;13.20;99.90
12015;DHT22;6066;48.138;16.402;2022-10-16T10:10:59;13.30;99.90
12015;DHT22;6066;48.138;16.402;2022-10-16T10:13:27;13.30;99.90
12015;DHT22;6066;48.138;16.402;2022-10-16T10:15:54;13.40;99.90
12015;DHT22;6066;48.138;16.402;2022-10-16T10:18:21;13.40;99.90
12015;DHT22;6066;48.138;16.402;2022-10-16T10:20:56;13.40;99.90
12015;DHT22;6066;48.138;16.402;2022-10-16T10:23:24;13.50;99.90
12015;DHT22;6066;48.138;16.402;2022-10-16T10:25:52;13.60;99.90
12015;DHT22;6066;48.138;16.402;2022-10-16T10:28:35;13.60;99.90
12015;DHT22;6066;48.138;16.402;2022-10-16T10:31:06;13.60;99.90
12015;DHT22;6066;48.138;16.402;2022-10-16T10:33:38;13.70;99.90
12015;DHT22;6066;48.138;16.402;2022-10-16T10:36:12;13.70;99.90
12015;DHT22;6066;48.138;16.402;2022-10-16T10:38:42;13.80;99.90
12015;DHT22;6066;48.138;16.402;2022-10-16T10:41:16;13.80;99.90
12015;DHT22;6066;48.138;16.402;2022-10-16T10:43:50;13.80;99.90
12015;DHT22;6066;48.138;16.402;2022-10-16T10:46:23;13.90;99.90
12015;DHT22;6066;48.138;16.402;2022-10-16T10:48:59;13.90;99.90
12015;DHT22;6066;48.138;16.402;2022-10-16T10:51:31;13.90;99.90
12015;DHT22;6066;48.138;16.402;2022-10-16T10:54:05;13.90;99.90
12015;DHT22;6066;48.138;16.402;2022-10-16T10:56:42;14.00;99.90
12015;DHT22;6066;48.138;16.402;2022-10-16T11:01:59;14.40;99.90
12015;DHT22;6066;48.138;16.402;2022-10-16T11:07:15;14.50;99.90
12015;DHT22;6066;48.138;16.402;2022-10-16T11:09:43;14.50;99.90
12015;DHT22;6066;48.138;16.402;2022-10-16T11:12:12;14.70;99.90
12015;DHT22;6066;48.138;16.402;2022-10-16T11:14:42;14.90;99.90
12015;DHT22;6066;48.138;16.402;2022-10-16T11:17:13;14.90;99.90
12015;DHT22;6066;48.138;16.402;2022-10-16T11:19:44;15.20;99.90
12015;DHT22;6066;48.138;16.402;2022-10-16T11:22:13;15.50;99.90
12015;DHT22;6066;48.138;16.402;2022-10-16T11:24:42;15.70;99.90
12015;DHT22;6066;48.138;16.402;2022-10-16T11:27:17;15.80;99.90
12015;DHT22;6066;48.138;16.402;2022-10-16T11:29:45;16.00;99.90
12015;DHT22;6066;48.138;16.402;2022-10-16T11:32:17;16.10;99.90
12015;DHT22;6066;48.138;16.402;2022-10-16T11:34:47;16.20;99.90
12015;DHT22;6066;48.138;16.402;2022-10-16T11:37:17;16.30;99.90
12015;DHT22;6066;48.138;16.402;2022-10-16T11:39:45;16.30;99.90
12015;DHT22;6066;48.138;16.402;2022-10-16T11:42:13;16.00;99.90
12015;DHT22;6066;48.138;16.402;2022-10-16T11:44:45;16.00;99.90
12015;DHT22;6066;48.138;16.402;2022-10-16T11:47:23;15.90;99.90
12015;DHT22;6066;48.138;16.402;2022-10-16T11:49:51;15.90;99.90
12015;DHT22;6066;48.138;16.402;2022-10-16T11:52:20;16.00;99.90
12015;DHT22;6066;48.138;16.402;2022-10-16T11:54:50;16.10;99.90
12015;DHT22;6066;48.138;16.402;2022-10-16T11:57:19;16.10;99.90
12015;DHT22;6066;48.138;16.402;2022-10-16T11:59:47;16.20;99.90
12015;DHT22;6066;48.138;16.402;2022-10-16T12:02:30;16.50;99.90
12015;DHT22;6066;48.138;16.402;2022-10-16T12:05:02;16.60;99.90
12015;DHT22;6066;48.138;16.402;2022-10-16T12:07:33;16.70;99.90
12015;DHT22;6066;48.138;16.402;2022-10-16T12:10:09;16.80;99.90
12015;DHT22;6066;48.138;16.402;2022-10-16T12:12:37;16.80;99.90
12015;DHT22;6066;48.138;16.402;2022-10-16T12:15:18;16.70;99.90
12015;DHT22;6066;48.138;16.402;2022-10-16T12:17:46;16.90;99.90
12015;DHT22;6066;48.138;16.402;2022-10-16T12:20:19;17.10;99.90
12015;DHT22;6066;48.138;16.402;2022-10-16T12:22:47;17.20;99.90
12015;DHT22;6066;48.138;16.402;2022-10-16T12:25:19;17.40;99.90
12015;DHT22;6066;48.138;16.402;2022-10-16T12:27:52;17.40;99.90
12015;DHT22;6066;48.138;16.402;2022-10-16T12:30:20;17.50;99.90
12015;DHT22;6066;48.138;16.402;2022-10-16T12:32:53;17.60;99.90
12015;DHT22;6066;48.138;16.402;2022-10-16T12:35:21;17.80;99.90
12015;DHT22;6066;48.138;16.402;2022-10-16T12:37:48;17.90;99.90
12015;DHT22;6066;48.138;16.402;2022-10-16T12:40:22;17.90;99.90
12015;DHT22;6066;48.138;16.402;2022-10-16T12:42:50;17.80;99.90
12015;DHT22;6066;48.138;16.402;2022-10-16T12:45:27;17.80;99.90
12015;DHT22;6066;48.138;16.402;2022-10-16T12:47:56;17.50;99.90
12015;DHT22;6066;48.138;16.402;2022-10-16T12:50:31;17.40;99.90
12015;DHT22;6066;48.138;16.402;2022-10-16T12:52:58;17.30;99.90
12015;DHT22;6066;48.138;16.402;2022-10-16T12:55:25;17.20;99.90
12015;DHT22;6066;48.138;16.402;2022-10-16T13:00:36;17.40;99.90
12015;DHT22;6066;48.138;16.402;2022-10-16T13:03:13;17.60;99.90
12015;DHT22;6066;48.138;16.402;2022-10-16T13:05:48;17.80;99.90
12015;DHT22;6066;48.138;16.402;2022-10-16T13:08:27;17.90;99.90
12015;DHT22;6066;48.138;16.402;2022-10-16T13:10:59;17.90;99.90
12015;DHT22;6066;48.138;16.402;2022-10-16T13:13:33;17.90;99.90
12015;DHT22;6066;48.138;16.402;2022-10-16T13:16:09;18.00;99.90
12015;DHT22;6066;48.138;16.402;2022-10-16T13:18:42;18.10;99.90
12015;DHT22;6066;48.138;16.402;2022-10-16T13:21:17;18.20;99.90
12015;DHT22;6066;48.138;16.402;2022-10-16T13:23:47;18.20;99.90
12015;DHT22;6066;48.138;16.402;2022-10-16T13:26:18;18.30;99.90
12015;DHT22;6066;48.138;16.402;2022-10-16T13:28:46;18.30;99.90
12015;DHT22;6066;48.138;16.402;2022-10-16T13:31:14;18.40;99.90
12015;DHT22;6066;48.138;16.402;2022-10-16T13:33:45;18.40;99.90
12015;DHT22;6066;48.138;16.402;2022-10-16T13:36:19;18.50;99.90
12015;DHT22;6066;48.138;16.402;2022-10-16T13:38:46;18.50;99.90
12015;DHT22;6066;48.138;16.402;2022-10-16T13:41:14;18.50;99.90
12015;DHT22;6066;48.138;16.402;2022-10-16T13:43:41;18.40;99.90
12015;DHT22;6066;48.138;16.402;2022-10-16T13:46:11;18.40;99.90
12015;DHT22;6066;48.138;16.402;2022-10-16T13:48:38;18.30;99.90
12015;DHT22;6066;48.138;16.402;2022-10-16T13:51:11;18.30;99.90
12015;DHT22;6066;48.138;16.402;2022-10-16T13:53:38;18.20;99.90
12015;DHT22;6066;48.138;16.402;2022-10-16T13:56:07;18.30;99.90
12015;DHT22;6066;48.138;16.402;2022-10-16T13:58:34;18.20;99.90
12015;DHT22;6066;48.138;16.402;2022-10-16T14:01:01;18.30;99.90
12015;DHT22;6066;48.138;16.402;2022-10-16T14:03:28;18.30;99.90
12015;DHT22;6066;48.138;16.402;2022-10-16T14:05:57;18.40;99.90
12015;DHT22;6066;48.138;16.402;2022-10-16T14:08:27;18.40;99.90
12015;DHT22;6066;48.138;16.402;2022-10-16T14:10:55;18.50;99.90
12015;DHT22;6066;48.138;16.402;2022-10-16T14:13:28;18.30;99.90
12015;DHT22;6066;48.138;16.402;2022-10-16T14:15:55;18.40;99.90
12015;DHT22;6066;48.138;16.402;2022-10-16T14:18:24;18.50;99.90
12015;DHT22;6066;48.138;16.402;2022-10-16T14:20:52;18.40;99.90
12015;DHT22;6066;48.138;16.402;2022-10-16T14:23:20;18.40;99.90
12015;DHT22;6066;48.138;16.402;2022-10-16T14:25:48;18.30;99.90
12015;DHT22;6066;48.138;16.402;2022-10-16T14:28:16;18.30;99.90
12015;DHT22;6066;48.138;16.402;2022-10-16T14:30:49;18.30;99.90
12015;DHT22;6066;48.138;16.402;2022-10-16T14:33:23;18.20;99.90
12015;DHT22;6066;48.138;16.402;2022-10-16T14:35:59;18.20;99.90
12015;DHT22;6066;48.138;16.402;2022-10-16T14:38:26;18.20;99.90
12015;DHT22;6066;48.138;16.402;2022-10-16T14:40:54;18.20;99.90
12015;DHT22;6066;48.138;16.402;2022-10-16T14:43:26;18.20;99.90
12015;DHT22;6066;48.138;16.402;2022-10-16T14:45:55;18.10;99.90
12015;DHT22;6066;48.138;16.402;2022-10-16T14:48:22;18.00;99.90
12015;DHT22;6066;48.138;16.402;2022-10-16T14:50:49;17.90;99.90
12015;DHT22;6066;48.138;16.402;2022-10-16T14:53:16;17.90;99.90
12015;DHT22;6066;48.138;16.402;2022-10-16T14:55:43;17.80;99.90
12015;DHT22;6066;48.138;16.402;2022-10-16T14:58:11;17.70;99.90
12015;DHT22;6066;48.138;16.402;2022-10-16T15:00:40;17.70;99.90
12015;DHT22;6066;48.138;16.402;2022-10-16T15:03:07;17.60;99.90
12015;DHT22;6066;48.138;16.402;2022-10-16T15:05:33;17.50;99.90
12015;DHT22;6066;48.138;16.402;2022-10-16T15:08:00;17.50;99.90
12015;DHT22;6066;48.138;16.402;2022-10-16T15:10:27;17.50;99.90
12015;DHT22;6066;48.138;16.402;2022-10-16T15:12:55;17.40;99.90
12015;DHT22;6066;48.138;16.402;2022-10-16T15:15:27;17.40;99.90
12015;DHT22;6066;48.138;16.402;2022-10-16T15:17:56;17.30;99.90
12015;DHT22;6066;48.138;16.402;2022-10-16T15:20:26;17.20;99.90
12015;DHT22;6066;48.138;16.402;2022-10-16T15:22:53;17.10;99.90
12015;DHT22;6066;48.138;16.402;2022-10-16T15:25:30;17.10;99.90
12015;DHT22;6066;48.138;16.402;2022-10-16T15:27:58;17.00;99.90
12015;DHT22;6066;48.138;16.402;2022-10-16T15:30:24;16.90;99.90
12015;DHT22;6066;48.138;16.402;2022-10-16T15:32:52;16.90;99.90
12015;DHT22;6066;48.138;16.402;2022-10-16T15:35:19;16.90;99.90
12015;DHT22;6066;48.138;16.402;2022-10-16T15:37:46;16.80;99.90
12015;DHT22;6066;48.138;16.402;2022-10-16T15:40:13;16.80;99.90
12015;DHT22;6066;48.138;16.402;2022-10-16T15:42:40;16.70;99.90
12015;DHT22;6066;48.138;16.402;2022-10-16T15:45:08;16.60;99.90
12015;DHT22;6066;48.138;16.402;2022-10-16T15:47:35;16.60;99.90
12015;DHT22;6066;48.138;16.402;2022-10-16T15:50:03;16.60;99.90
12015;DHT22;6066;48.138;16.402;2022-10-16T15:52:30;16.60;99.90